Latest Weather Observations for Perisher Valley

IDN60901

Issued at 8:31 pm EST Sunday 25 September 2016 (issued every 10 minutes, with the page automatically refreshed every 10 minutes)

About weather observations | Map of Canberra area stations | Latest observations for Canberra area | Other Formats
Station Details ID: 071075 Name: PERISHER VALLEY AWS Lat: -36.41 Lon: 148.41 Height: 1738.0 m
Data from the previous 72 hours. | See also: Recent months at Perisher Valley
Date/Time
EST
Temp
°C
App
Temp
°C
Dew
Point
°C
Rel
Hum
%
Delta-T
°C
Wind Press
QNH
hPa
Press
MSL
hPa
Rain since
9am
mm
Dir  Spd
km/h
Gust
km/h
Spd
kts
Gust
kts
25/08:30pm 2.1 -1.2 0.0 86 0.9 W 7 22 4 12 - - 2.2
25/08:00pm 2.4 -1.2 0.3 86 0.9 WNW 9 26 5 14 - - 2.2
25/07:30pm 2.6 -1.0 0.5 86 0.9 W 9 28 5 15 - - 2.2
25/07:00pm 2.7 -0.5 0.8 87 0.8 W 7 20 4 11 - - 2.2
25/06:30pm 3.1 -0.5 0.7 84 1.0 W 9 20 5 11 - - 2.2
25/06:00pm 3.2 -1.4 1.3 87 0.8 WNW 15 28 8 15 - - 2.2
25/05:30pm 3.4 -0.1 1.1 85 1.0 WNW 9 17 5 9 - - 2.2
25/05:00pm 3.5 0.5 1.1 84 1.0 W 6 19 3 10 - - 2.2
25/04:30pm 3.6 0.2 1.6 87 0.9 W 9 22 5 12 - - 2.2
25/04:00pm 3.8 -1.2 1.2 83 1.1 W 17 30 9 16 - - 2.2
25/03:30pm 3.5 -1.5 1.1 84 1.0 W 17 28 9 15 - - 2.2
25/03:00pm 3.4 -2.0 1.3 86 0.9 WNW 19 32 10 17 - - 1.8
25/02:30pm 3.9 -1.4 1.6 85 1.0 WNW 19 33 10 18 - - 1.6
25/02:00pm 3.6 0.2 2.1 90 0.7 W 9 24 5 13 - - 1.4
25/01:30pm 4.5 0.4 2.2 85 1.0 WNW 13 24 7 13 - - 0.2
25/01:00pm 4.8 -0.1 2.2 83 1.2 W 17 28 9 15 - - 0.0
25/12:30pm 5.6 1.9 2.4 80 1.5 W 11 22 6 12 - - 0.0
25/12:00pm 6.0 2.6 1.9 75 1.9 W 9 17 5 9 - - 0.0
25/11:30am 4.9 2.0 1.4 78 1.5 W 6 17 3 9 - - 0.0
25/11:00am 4.9 1.1 1.9 81 1.3 W 11 26 6 14 - - 0.0
25/10:30am 4.8 1.8 2.2 83 1.2 WSW 7 22 4 12 - - 0.0
25/10:00am 4.7 -0.1 2.7 87 0.9 WSW 17 32 9 17 - - 0.0
25/09:30am 4.0 -0.4 2.8 92 0.5 W 15 32 8 17 - - 0.0
25/09:00am 3.1 -0.9 2.8 98 0.1 WSW 13 30 7 16 - - 5.4
25/08:30am 2.5 -2.0 2.2 98 0.1 W 15 37 8 20 - - 5.4
25/08:21am 2.3 -4.7 2.0 98 0.1 W 28 46 15 25 - - 5.4
25/08:00am 2.3 -4.7 1.7 96 0.3 W 28 46 15 25 - - 5.4
25/07:30am 2.0 -5.0 1.7 98 0.1 W 28 48 15 26 - - 5.4
25/07:02am 1.8 -5.7 1.5 98 0.1 W 30 50 16 27 - - 5.4
25/07:00am 1.8 -6.0 1.5 98 0.1 W 32 50 17 27 - - 5.4
25/06:30am 1.9 -4.4 1.6 98 0.1 W 24 46 13 25 - - 5.4
25/06:24am 1.9 -5.2 1.6 98 0.1 W 28 46 15 25 - - 5.4
25/06:00am 1.8 -4.1 1.5 98 0.1 W 22 41 12 22 - - 5.4
25/05:30am 1.7 -5.4 1.1 96 0.3 W 28 44 15 24 - - 5.4
25/05:00am 1.7 -5.5 1.0 95 0.3 W 28 41 15 22 - - 5.4
25/04:30am 1.8 -4.3 0.6 92 0.5 W 22 33 12 18 - - 5.4
25/04:00am 1.7 -3.1 0.4 91 0.5 W 15 26 8 14 - - 5.4
25/03:30am 1.7 -5.6 -0.1 88 0.7 W 28 39 15 21 - - 5.4
25/03:00am 1.6 -5.4 -0.2 88 0.7 WNW 26 41 14 22 - - 5.4
25/02:30am 1.3 -6.8 -0.3 89 0.7 W 32 50 17 27 - - 5.4
25/02:03am 1.7 -5.7 -0.9 83 1.1 W 28 46 15 25 - - 5.0
25/02:00am 1.8 -6.0 -1.1 81 1.2 WNW 30 46 16 25 - - 5.0
25/01:55am 1.9 -5.5 -0.8 82 1.1 WNW 28 48 15 26 - - 5.0
25/01:30am 1.9 -6.2 0.0 87 0.8 W 32 44 17 24 - - 5.0
25/01:00am 1.6 -6.1 0.1 90 0.6 W 30 44 16 24 - - 5.0
25/12:30am 2.2 -3.3 0.3 87 0.8 W 19 30 10 16 - - 3.8
25/12:00am 2.6 -1.8 0.5 86 0.9 WNW 13 26 7 14 - - 3.8
 
Date/Time
EST
Temp
°C
App
Temp
°C
Dew
Point
°C
Rel
Hum
%
Delta-T
°C
Wind Press
QNH
hPa
Press
MSL
hPa
Rain since
9am
mm
Dir  Spd
km/h
Gust
km/h
Spd
kts
Gust
kts
24/11:30pm 2.8 -0.7 1.2 89 0.7 W 9 19 5 10 - - 3.8
24/11:00pm 3.1 0.3 1.9 92 0.5 NW 6 17 3 9 - - 3.2
24/10:30pm 3.2 0.3 2.5 95 0.3 NW 7 22 4 12 - - 3.0
24/10:00pm 3.5 1.2 2.6 94 0.4 WNW 4 13 2 7 - - 2.4
24/09:30pm 3.5 0.7 2.2 91 0.6 W 6 15 3 8 - - 1.2
24/09:00pm 4.3 1.6 2.5 88 0.8 W 6 19 3 10 - - 0.0
24/08:30pm 4.2 0.9 2.2 87 0.9 W 9 24 5 13 - - 0.0
24/08:00pm 4.3 1.9 2.0 85 1.0 NNW 4 11 2 6 - - 0.0
24/07:30pm 4.5 1.7 1.9 83 1.2 NNW 6 15 3 8 - - 0.0
24/07:00pm 4.5 0.0 2.0 84 1.1 W 15 28 8 15 - - 0.0
24/06:30pm 4.7 1.9 2.2 84 1.1 N 6 24 3 13 - - 0.0
24/06:00pm 4.7 1.7 2.2 84 1.1 WNW 7 20 4 11 - - 0.0
24/05:30pm 5.0 2.3 2.5 84 1.1 NNW 6 19 3 10 - - 0.0
24/05:00pm 5.1 2.8 2.5 83 1.2 W 4 19 2 10 - - 0.0
24/04:30pm 5.3 2.5 3.0 85 1.1 W 7 20 4 11 - - 0.0
24/04:00pm 5.5 3.3 3.3 86 1.0 N 4 17 2 9 - - 0.0
24/03:30pm 5.7 2.9 3.4 85 1.1 W 7 20 4 11 - - 0.0
24/03:00pm 6.3 3.1 3.1 80 1.5 W 9 22 5 12 - - 0.0
24/02:30pm 7.7 5.1 3.4 74 2.0 NNW 6 20 3 11 - - 0.0
24/02:00pm 7.2 4.4 2.3 71 2.3 N 6 11 3 6 - - 0.0
24/01:30pm 9.5 6.9 3.3 65 3.0 N 6 20 3 11 - - 0.0
24/01:00pm 8.3 6.1 3.2 70 2.4 NNW 4 13 2 7 - - 0.0
24/12:30pm 7.6 5.4 3.3 74 2.0 WNW 4 9 2 5 - - 0.0
24/12:00pm 6.7 3.4 2.2 73 2.1 WNW 9 22 5 12 - - 0.0
24/11:30am 7.6 5.3 2.7 71 2.3 NNW 4 11 2 6 - - 0.0
24/11:00am 7.0 4.3 2.9 75 1.9 WNW 6 13 3 7 - - 0.0
24/10:30am 6.1 3.8 2.7 79 1.6 NNW 4 11 2 6 - - 0.0
24/10:00am 6.1 3.7 2.4 77 1.7 NNW 4 9 2 5 - - 0.0
24/09:30am 6.8 4.0 2.3 73 2.1 WNW 6 19 3 10 - - 0.0
24/09:00am 5.0 2.9 1.7 79 1.5 ESE 2 9 1 5 - - 0.8
24/08:30am 5.2 2.4 1.9 79 1.5 SSE 6 13 3 7 - - 0.8
24/08:00am 4.8 0.6 1.7 80 1.4 W 13 26 7 14 - - 0.8
24/07:30am 4.7 1.8 1.7 81 1.3 WNW 6 13 3 7 - - 0.8
24/07:00am 4.0 1.2 2.2 88 0.8 ESE 6 11 3 6 - - 0.8
24/06:30am 2.8 -0.2 2.1 95 0.3 SE 7 15 4 8 - - 0.8
24/06:00am 1.3 -1.0 0.7 96 0.3 ENE 2 4 1 2 - - 0.8
24/05:30am 1.7 -0.5 1.1 96 0.3 SSE 2 7 1 4 - - 0.8
24/05:00am 1.1 -1.2 0.2 94 0.4 ESE 2 6 1 3 - - 0.8
24/04:30am 1.3 -1.4 0.3 93 0.4 E 4 7 2 4 - - 0.8
24/04:00am 2.2 0.0 0.9 91 0.6 SW 2 9 1 5 - - 0.8
24/03:30am 3.2 -1.0 1.9 91 0.6 W 13 22 7 12 - - 0.8
24/03:00am 3.4 -1.5 2.2 92 0.5 W 17 30 9 16 - - 0.8
24/02:30am 3.4 -0.3 2.1 91 0.6 WSW 11 28 6 15 - - 0.8
24/02:00am 3.6 -0.5 2.0 89 0.7 W 13 30 7 16 - - 0.8
24/01:30am 3.7 -0.8 1.9 88 0.8 W 15 26 8 14 - - 0.8
24/01:00am 3.9 -0.3 1.9 87 0.9 W 13 24 7 13 - - 0.8
24/12:30am 3.5 -1.4 1.7 88 0.8 W 17 28 9 15 - - 0.8
24/12:00am 3.6 -0.6 1.6 87 0.9 W 13 28 7 15 - - 0.8
 
Date/Time
EST
Temp
°C
App
Temp
°C
Dew
Point
°C
Rel
Hum
%
Delta-T
°C
Wind Press
QNH
hPa
Press
MSL
hPa
Rain since
9am
mm
Dir  Spd
km/h
Gust
km/h
Spd
kts
Gust
kts
23/11:30pm 3.4 -1.5 1.9 90 0.7 W 17 26 9 14 - - 0.8
23/11:00pm 3.5 -1.0 2.0 90 0.7 WNW 15 22 8 12 - - 0.8
23/10:30pm 3.7 -0.4 2.4 91 0.6 W 13 22 7 12 - - 0.8
23/10:00pm 3.6 -0.1 2.1 90 0.7 W 11 19 6 10 - - 0.8
23/09:30pm 2.9 0.2 2.5 97 0.2 W 6 17 3 9 - - 0.8
23/09:00pm 0.8 -1.5 0.2 96 0.2 WSW 2 4 1 2 - - 0.8
23/08:30pm 1.5 -0.7 0.8 95 0.3 NNE 2 9 1 5 - - 0.8
23/08:00pm 1.8 -0.4 0.9 94 0.4 SSE 2 6 1 3 - - 0.8
23/07:30pm 2.8 0.8 2.2 96 0.3 NNE 2 4 1 2 - - 0.6
23/07:00pm 3.3 1.8 2.9 97 0.2 CALM 0 4 0 2 - - 0.6
23/06:30pm 3.4 1.1 3.0 97 0.2 N 4 7 2 4 - - 0.6
23/06:00pm 3.4 1.1 2.8 96 0.3 NNE 4 6 2 3 - - 0.6
23/05:30pm 3.4 0.7 2.7 95 0.3 NE 6 7 3 4 - - 0.6
23/05:00pm 3.8 1.1 2.9 94 0.4 E 6 9 3 5 - - 0.6
23/04:30pm 4.3 1.2 3.4 94 0.4 ENE 9 13 5 7 - - 0.4
23/04:00pm 4.7 1.5 3.2 90 0.7 E 9 13 5 7 - - 0.2
23/03:30pm 6.0 3.9 3.8 86 1.0 SSE 4 6 2 3 - - 0.0
23/03:00pm 5.5 3.0 3.7 88 0.8 E 6 13 3 7 - - 0.0
23/02:30pm 6.0 3.1 2.8 80 1.5 ESE 7 17 4 9 - - 0.0
23/02:00pm 5.5 2.6 2.5 81 1.4 ESE 7 17 4 9 - - 0.0
23/01:30pm 6.9 3.2 2.2 72 2.2 ESE 11 20 6 11 - - 0.0
23/01:00pm 8.2 5.3 2.7 68 2.6 ESE 7 20 4 11 - - 0.0
23/12:30pm 6.7 3.9 1.8 71 2.2 E 6 11 3 6 - - 0.0
23/12:00pm 6.1 3.2 1.6 73 2.0 S 6 11 3 6 - - 0.0
23/11:30am 7.7 5.1 3.2 73 2.1 SSW 6 17 3 9 - - 0.0
23/11:00am 5.4 2.9 1.5 76 1.7 SE 4 13 2 7 - - 0.0
23/10:30am 4.7 2.4 3.0 89 0.8 ESE 4 9 2 5 - - 0.0
23/10:00am 3.9 1.1 2.3 89 0.7 S 6 13 3 7 - - 0.0
23/09:30am 3.4 0.0 2.1 91 0.6 SSW 9 17 5 9 - - 0.0
23/09:00am 2.9 -0.2 1.6 91 0.6 SSW 7 17 4 9 - - 0.2
23/08:30am 3.0 0.0 2.1 94 0.4 WSW 7 20 4 11 - - 0.2
23/08:00am 2.8 -0.2 2.2 96 0.3 SW 7 17 4 9 - - 0.2
23/07:30am 2.0 -1.4 1.7 98 0.1 SW 9 20 5 11 - - 0.2
23/07:00am 1.6 -1.5 1.3 98 0.1 WSW 7 17 4 9 - - 0.2
23/06:30am 1.5 -2.0 1.2 98 0.1 SW 9 20 5 11 - - 0.2
23/06:00am 1.5 -1.4 1.2 98 0.1 SW 6 13 3 7 - - 0.2
23/05:30am 1.5 -1.4 1.2 98 0.1 SW 6 19 3 10 - - 0.2
23/05:00am 1.8 -2.0 1.5 98 0.1 SSW 11 24 6 13 - - 0.2
23/04:30am 1.9 -1.9 1.6 98 0.1 SW 11 24 6 13 - - 0.2
23/04:00am 1.9 -1.9 1.6 98 0.1 SW 11 33 6 18 - - 0.2
23/03:30am 1.9 -1.5 1.8 99 0.0 SW 9 24 5 13 - - 0.2
23/03:00am 1.7 -2.9 1.6 99 0.0 SW 15 32 8 17 - - 0.2
23/02:30am 1.8 -2.8 1.5 98 0.1 SW 15 24 8 13 - - 0.2
23/02:00am 1.9 -1.9 1.6 98 0.1 SW 11 26 6 14 - - 0.2
23/01:30am 1.9 -2.3 1.8 99 0.0 SW 13 24 7 13 - - 0.2
23/01:00am 2.0 -1.8 1.9 99 0.0 SW 11 24 6 13 - - 0.2
23/12:30am 2.1 -2.0 2.0 99 0.0 SW 13 24 7 13 - - 0.2
23/12:00am 2.2 -1.9 2.1 99 0.0 SSW 13 28 7 15 - - 0.2
 
Date/Time
EST
Temp
°C
App
Temp
°C
Dew
Point
°C
Rel
Hum
%
Delta-T
°C
Wind Press
QNH
hPa
Press
MSL
hPa
Rain since
9am
mm
Dir  Spd
km/h
Gust
km/h
Spd
kts
Gust
kts
22/11:30pm 2.1 -2.0 2.0 99 0.0 SW 13 24 7 13 - - 0.2
22/11:00pm 2.1 -2.0 2.0 99 0.0 SW 13 28 7 15 - - 0.2
22/10:30pm 2.0 -2.5 1.9 99 0.0 SSW 15 26 8 14 - - 0.2
22/10:00pm 2.0 -2.5 1.9 99 0.0 SSW 15 26 8 14 - - 0.2
22/09:30pm 1.9 -3.0 1.8 99 0.0 SSW 17 32 9 17 - - 0.2
22/09:00pm 2.0 -2.9 1.9 99 0.0 SSW 17 28 9 15 - - 0.2

Latest Capital City Observations: Canberra | Sydney | Melbourne | Brisbane | Adelaide | Perth | Hobart | Darwin

Other Formats:

Comma delimited format used in spreadsheet applications
http://www.bom.gov.au/fwo/IDN60903/IDN60903.94915.axf

JavaScript Object Notation format (JSON) in row-major order
http://www.bom.gov.au/fwo/IDN60903/IDN60903.94915.json